Time;durP1;ratioP1;P1;durP2;ratioP2;P2;SDS_P1;SDS_P2;PMS_P1;PMS_P2;Temp;Humidity;BMP_temperature;BMP_pressure;BME280_temperature;BME280_humidity;BME280_pressure;Samples;Min_cycle;Max_cycle;Signal;HPM_P1;HPM_P2
2021/12/26 00:01:45;;;;;;;25.70;16.80;;;;;;;;;;5112188;28;20027;-55
2021/12/26 00:04:16;;;;;;;18.67;16.63;;;;;;;;;;5111686;28;20116;-56
2021/12/26 00:06:41;;;;;;;21.23;15.97;;;;;;;;;;5115472;27;20259;-55
2021/12/26 00:09:06;;;;;;;27.55;18.52;;;;;;;;;;5119081;27;20846;-55
2021/12/26 00:11:32;;;;;;;23.20;17.60;;;;;;;;;;5098181;27;20008;-55
2021/12/26 00:13:57;;;;;;;21.65;16.23;;;;;;;;;;5117076;27;20103;-56
2021/12/26 00:16:23;;;;;;;20.60;16.40;;;;;;;;;;5118884;27;20081;-54
2021/12/26 00:18:49;;;;;;;19.52;14.85;;;;;;;;;;5117205;27;20076;-56
2021/12/26 00:21:15;;;;;;;16.05;14.35;;;;;;;;;;5117338;27;20096;-54
2021/12/26 00:23:41;;;;;;;18.15;13.05;;;;;;;;;;5121007;27;20015;-55
2021/12/26 00:26:07;;;;;;;20.38;13.65;;;;;;;;;;5117242;27;20024;-56
2021/12/26 00:28:32;;;;;;;24.00;14.48;;;;;;;;;;5113462;27;20019;-55
2021/12/26 00:30:58;;;;;;;19.33;14.88;;;;;;;;;;5116324;27;20019;-55
2021/12/26 00:33:23;;;;;;;28.92;16.42;;;;;;;;;;5118927;27;20031;-54
2021/12/26 00:35:48;;;;;;;25.88;19.35;;;;;;;;;;5116898;27;20353;-55
2021/12/26 00:38:14;;;;;;;23.00;19.33;;;;;;;;;;5117505;27;20034;-54
2021/12/26 00:40:40;;;;;;;21.65;17.58;;;;;;;;;;5117076;27;20406;-57
2021/12/26 00:43:06;;;;;;;24.83;19.45;;;;;;;;;;5114960;27;20084;-55
2021/12/26 00:45:32;;;;;;;21.83;18.08;;;;;;;;;;5120460;27;20747;-54
2021/12/26 00:47:57;;;;;;;28.25;15.60;;;;;;;;;;5116765;27;20600;-56
2021/12/26 00:50:25;;;;;;;24.10;16.30;;;;;;;;;;5116330;27;20077;-56
2021/12/26 00:52:51;;;;;;;20.10;17.55;;;;;;;;;;5118429;27;20012;-55
2021/12/26 00:55:17;;;;;;;20.75;17.40;;;;;;;;;;5117913;27;20027;-54
2021/12/26 00:57:42;;;;;;;23.95;14.90;;;;;;;;;;5117161;27;20049;-55
2021/12/26 01:00:10;;;;;;;17.77;14.50;;;;;;;;;;5114543;27;20019;-55
2021/12/26 01:02:35;;;;;;;24.70;16.20;;;;;;;;;;5117423;27;20038;-56
2021/12/26 01:05:01;;;;;;;23.75;15.15;;;;;;;;;;5117266;27;20095;-54
2021/12/26 01:10:08;;;;;;;21.52;14.85;;;;;;;;;;5120657;27;20023;-55
2021/12/26 01:12:34;;;;;;;20.10;16.00;;;;;;;;;;5117421;27;20087;-55
2021/12/26 01:15:05;;;;;;;15.80;12.38;;;;;;;;;;5114931;27;20710;-53
2021/12/26 01:17:30;;;;;;;18.20;15.32;;;;;;;;;;5115874;27;20035;-55
2021/12/26 01:19:56;;;;;;;16.95;14.27;;;;;;;;;;5111178;27;20039;-55
2021/12/26 01:22:22;;;;;;;21.52;15.40;;;;;;;;;;5116292;27;20759;-55
2021/12/26 01:24:48;;;;;;;22.02;17.35;;;;;;;;;;5118983;27;20027;-55
2021/12/26 01:27:14;;;;;;;17.85;13.35;;;;;;;;;;5118208;27;20016;-59
2021/12/26 01:29:39;;;;;;;15.95;14.18;;;;;;;;;;5123204;27;20379;-55
2021/12/26 01:32:06;;;;;;;20.92;15.60;;;;;;;;;;5118643;27;20024;-56
2021/12/26 01:34:31;;;;;;;22.35;16.13;;;;;;;;;;5119008;27;20047;-53
2021/12/26 01:36:56;;;;;;;16.80;12.85;;;;;;;;;;5117641;27;20582;-56
2021/12/26 01:39:23;;;;;;;19.15;12.98;;;;;;;;;;5115965;27;20023;-55
2021/12/26 01:41:49;;;;;;;21.40;14.52;;;;;;;;;;5116364;27;20054;-56
2021/12/26 01:44:15;;;;;;;15.77;13.77;;;;;;;;;;5118147;27;20111;-54
2021/12/26 01:46:41;;;;;;;18.80;15.60;;;;;;;;;;5114726;27;20051;-55
2021/12/26 01:49:09;;;;;;;23.77;16.42;;;;;;;;;;5112304;27;20127;-55
2021/12/26 01:51:35;;;;;;;17.58;15.82;;;;;;;;;;5112789;27;20038;-55
2021/12/26 01:54:06;;;;;;;25.17;15.95;;;;;;;;;;5114968;27;20570;-56
2021/12/26 01:56:32;;;;;;;20.45;15.63;;;;;;;;;;5117243;27;20020;-55
2021/12/26 01:58:57;;;;;;;23.80;17.05;;;;;;;;;;5117747;27;20029;-55
2021/12/26 02:01:23;;;;;;;33.67;18.73;;;;;;;;;;5117729;27;20100;-56
2021/12/26 02:03:48;;;;;;;23.55;15.65;;;;;;;;;;5114533;27;20481;-56
2021/12/26 02:06:13;;;;;;;27.98;16.55;;;;;;;;;;5115494;27;20032;-55
2021/12/26 02:08:39;;;;;;;34.03;18.08;;;;;;;;;;5113021;27;20114;-56
2021/12/26 02:11:04;;;;;;;24.67;14.63;;;;;;;;;;5115907;27;20019;-54
2021/12/26 02:13:30;;;;;;;21.58;15.73;;;;;;;;;;5115303;27;20019;-56
2021/12/26 02:15:56;;;;;;;20.98;9.95;;;;;;;;;;5114534;27;20036;-55
2021/12/26 02:18:22;;;;;;;22.20;13.05;;;;;;;;;;5114422;27;20027;-56
2021/12/26 02:23:18;;;;;;;7.53;5.00;;;;;;;;;;5114588;27;20057;-54
2021/12/26 02:28:19;;;;;;;6.63;4.38;;;;;;;;;;5112389;27;20027;-56
2021/12/26 02:30:44;;;;;;;11.82;8.95;;;;;;;;;;5113442;27;20126;-56
2021/12/26 02:33:11;;;;;;;13.55;10.38;;;;;;;;;;5114305;27;20106;-56
2021/12/26 02:35:37;;;;;;;9.05;8.15;;;;;;;;;;5114746;27;20028;-56
2021/12/26 02:38:02;;;;;;;11.15;7.93;;;;;;;;;;5117714;27;20049;-56
2021/12/26 02:40:27;;;;;;;13.18;7.57;;;;;;;;;;5118511;27;20027;-54
2021/12/26 02:42:53;;;;;;;16.73;7.93;;;;;;;;;;5115571;27;20038;-56
2021/12/26 02:45:18;;;;;;;12.48;8.60;;;;;;;;;;5114757;27;20710;-55
2021/12/26 02:47:47;;;;;;;12.32;8.13;;;;;;;;;;5119597;27;20015;-56
2021/12/26 02:50:24;;;;;;;14.88;9.45;;;;;;;;;;5114266;27;20064;-55
2021/12/26 02:52:50;;;;;;;16.42;8.27;;;;;;;;;;5114140;27;20372;-55
2021/12/26 02:55:16;;;;;;;19.15;12.35;;;;;;;;;;5118378;27;20488;-55
2021/12/26 02:57:45;;;;;;;16.95;12.13;;;;;;;;;;5116029;27;20114;-56
2021/12/26 03:00:12;;;;;;;15.27;12.05;;;;;;;;;;5112487;27;20027;-56
2021/12/26 03:02:44;;;;;;;13.27;10.20;;;;;;;;;;5112620;27;20031;-57
2021/12/26 03:05:10;;;;;;;18.65;11.73;;;;;;;;;;5114675;27;20030;-56
2021/12/26 03:07:35;;;;;;;14.77;9.57;;;;;;;;;;5116761;27;20024;-54
2021/12/26 03:10:01;;;;;;;18.13;10.38;;;;;;;;;;5114861;27;20110;-56
2021/12/26 03:12:27;;;;;;;10.25;8.95;;;;;;;;;;5112527;27;20073;-57
2021/12/26 03:14:53;;;;;;;7.60;6.30;;;;;;;;;;5114681;27;20015;-52
2021/12/26 03:17:18;;;;;;;10.30;8.55;;;;;;;;;;5113307;27;20020;-55
2021/12/26 03:19:44;;;;;;;18.30;10.40;;;;;;;;;;5109878;27;20015;-55
2021/12/26 03:22:09;;;;;;;15.82;9.77;;;;;;;;;;5115131;27;20068;-54
2021/12/26 03:24:37;;;;;;;14.13;12.10;;;;;;;;;;5116014;27;20022;-56
2021/12/26 03:27:04;;;;;;;16.15;9.30;;;;;;;;;;5115811;27;20024;-55
2021/12/26 03:29:29;;;;;;;10.50;7.60;;;;;;;;;;5112101;27;20019;-55
2021/12/26 03:31:54;;;;;;;16.75;8.85;;;;;;;;;;5113893;27;20060;-55
2021/12/26 03:34:20;;;;;;;17.40;9.68;;;;;;;;;;5110629;27;20018;-55
2021/12/26 03:36:46;;;;;;;12.52;8.07;;;;;;;;;;5117095;27;20015;-56
2021/12/26 03:39:11;;;;;;;13.82;7.28;;;;;;;;;;5115376;27;20472;-55
2021/12/26 03:41:37;;;;;;;6.75;5.40;;;;;;;;;;5114534;27;20023;-54
2021/12/26 03:44:02;;;;;;;5.22;4.32;;;;;;;;;;5114030;27;20130;-54
2021/12/26 03:46:27;;;;;;;24.75;11.07;;;;;;;;;;5112276;28;20035;-55
2021/12/26 03:48:53;;;;;;;12.50;7.15;;;;;;;;;;5116652;28;20031;-56
2021/12/26 03:51:20;;;;;;;8.95;5.55;;;;;;;;;;5114475;28;20034;-55
2021/12/26 03:53:45;;;;;;;8.27;5.18;;;;;;;;;;5113138;28;20011;-56
2021/12/26 03:56:10;;;;;;;7.38;5.93;;;;;;;;;;5113222;28;20046;-56
2021/12/26 03:58:37;;;;;;;7.03;4.82;;;;;;;;;;5112972;28;20051;-55
2021/12/26 04:01:02;;;;;;;6.60;5.30;;;;;;;;;;5114067;28;20027;-54
2021/12/26 04:03:27;;;;;;;7.07;6.13;;;;;;;;;;5114873;28;20028;-53
2021/12/26 04:05:53;;;;;;;11.32;6.32;;;;;;;;;;5116425;28;20030;-55
2021/12/26 04:08:18;;;;;;;22.52;13.95;;;;;;;;;;5117089;28;20129;-55
2021/12/26 04:10:43;;;;;;;19.42;13.35;;;;;;;;;;5116003;28;20027;-55
2021/12/26 04:13:09;;;;;;;18.45;12.52;;;;;;;;;;5114069;28;20023;-55
2021/12/26 04:15:34;;;;;;;11.38;10.20;;;;;;;;;;5116332;28;20429;-55
2021/12/26 04:18:00;;;;;;;19.45;10.10;;;;;;;;;;5113816;28;20399;-55
2021/12/26 04:20:26;;;;;;;12.85;11.63;;;;;;;;;;5112477;28;20078;-55
2021/12/26 04:22:52;;;;;;;15.05;11.52;;;;;;;;;;5114500;28;20051;-55
2021/12/26 04:25:18;;;;;;;16.02;9.20;;;;;;;;;;5114092;28;20104;-56
2021/12/26 04:27:43;;;;;;;15.40;8.52;;;;;;;;;;5112722;28;20491;-55
2021/12/26 04:30:11;;;;;;;12.95;9.50;;;;;;;;;;5113629;28;20036;-56
2021/12/26 04:32:36;;;;;;;11.25;9.68;;;;;;;;;;5112270;28;20578;-55
2021/12/26 04:35:02;;;;;;;21.98;14.27;;;;;;;;;;5115762;28;20034;-54
2021/12/26 04:37:28;;;;;;;36.78;13.90;;;;;;;;;;5110844;28;20181;-53
2021/12/26 04:39:53;;;;;;;31.15;13.45;;;;;;;;;;5113626;28;20679;-55
2021/12/26 04:42:19;;;;;;;9.73;8.00;;;;;;;;;;5115601;28;20483;-55
2021/12/26 04:44:44;;;;;;;10.00;8.68;;;;;;;;;;5113017;28;20027;-54
2021/12/26 04:47:09;;;;;;;12.50;7.10;;;;;;;;;;5115051;28;20030;-55
2021/12/26 04:49:35;;;;;;;13.60;7.13;;;;;;;;;;5114850;28;20346;-55
2021/12/26 04:52:00;;;;;;;15.93;9.82;;;;;;;;;;5115365;27;20007;-55
2021/12/26 04:54:25;;;;;;;14.77;9.48;;;;;;;;;;5114716;27;20027;-55
2021/12/26 04:56:51;;;;;;;13.63;9.05;;;;;;;;;;5115490;27;20020;-55
2021/12/26 04:59:16;;;;;;;13.07;9.27;;;;;;;;;;5112340;27;20062;-55
2021/12/26 05:01:41;;;;;;;9.27;7.22;;;;;;;;;;5117093;27;20103;-53
2021/12/26 05:04:07;;;;;;;10.63;8.10;;;;;;;;;;5117368;27;20088;-55
2021/12/26 05:06:32;;;;;;;10.32;8.55;;;;;;;;;;5113178;27;20468;-54
2021/12/26 05:08:58;;;;;;;11.57;8.60;;;;;;;;;;5116742;27;20019;-55
2021/12/26 05:11:23;;;;;;;11.88;7.20;;;;;;;;;;5117995;27;20111;-54
2021/12/26 05:13:48;;;;;;;13.43;7.32;;;;;;;;;;5116455;27;20020;-56
2021/12/26 05:16:14;;;;;;;9.77;6.50;;;;;;;;;;5117102;27;20052;-55
2021/12/26 05:18:39;;;;;;;7.57;6.68;;;;;;;;;;5118022;27;20026;-53
2021/12/26 05:21:04;;;;;;;10.60;6.35;;;;;;;;;;5120226;27;20051;-55
2021/12/26 05:23:30;;;;;;;5.18;4.22;;;;;;;;;;5114489;27;20019;-56
2021/12/26 05:25:55;;;;;;;9.75;6.63;;;;;;;;;;5119083;27;20447;-55
2021/12/26 05:28:20;;;;;;;7.68;5.18;;;;;;;;;;5116476;27;20038;-55
2021/12/26 05:30:45;;;;;;;7.32;5.90;;;;;;;;;;5117428;27;20476;-55
2021/12/26 05:33:11;;;;;;;14.70;6.10;;;;;;;;;;5118756;27;20542;-55
2021/12/26 05:35:36;;;;;;;5.93;3.70;;;;;;;;;;5119203;27;20499;-53
2021/12/26 05:38:02;;;;;;;14.38;4.88;;;;;;;;;;5115290;27;20031;-55
2021/12/26 05:40:27;;;;;;;4.65;3.60;;;;;;;;;;5117912;27;20061;-52
2021/12/26 05:42:53;;;;;;;7.18;4.63;;;;;;;;;;5115184;27;20028;-54
2021/12/26 05:45:18;;;;;;;4.53;3.75;;;;;;;;;;5115379;27;20045;-54
2021/12/26 05:47:44;;;;;;;6.18;5.45;;;;;;;;;;5115479;27;20111;-55
2021/12/26 05:50:11;;;;;;;6.25;5.22;;;;;;;;;;5116543;27;20586;-56
2021/12/26 05:52:37;;;;;;;6.18;4.97;;;;;;;;;;5115863;27;20483;-55
2021/12/26 05:55:03;;;;;;;7.30;6.30;;;;;;;;;;5116186;27;20010;-54
2021/12/26 05:57:28;;;;;;;10.98;6.05;;;;;;;;;;5116184;27;20540;-54
2021/12/26 05:59:54;;;;;;;6.22;4.18;;;;;;;;;;5116630;27;20118;-55
2021/12/26 06:02:19;;;;;;;4.97;3.90;;;;;;;;;;5116749;27;20440;-57
2021/12/26 06:04:44;;;;;;;7.60;5.57;;;;;;;;;;5117356;27;20051;-56
2021/12/26 06:07:10;;;;;;;8.35;6.47;;;;;;;;;;5122421;27;20487;-55
2021/12/26 06:09:35;;;;;;;9.50;6.20;;;;;;;;;;5115191;27;20103;-55
2021/12/26 06:12:00;;;;;;;9.80;6.13;;;;;;;;;;5117657;27;20554;-54
2021/12/26 06:14:26;;;;;;;8.55;6.32;;;;;;;;;;5113516;27;20011;-54
2021/12/26 06:16:51;;;;;;;7.13;5.97;;;;;;;;;;5118467;27;20023;-56
2021/12/26 06:19:16;;;;;;;11.73;6.90;;;;;;;;;;5120645;27;20035;-55
2021/12/26 06:21:42;;;;;;;4.60;3.78;;;;;;;;;;5118948;27;20099;-55
2021/12/26 06:24:08;;;;;;;7.63;4.82;;;;;;;;;;5118704;27;20547;-55
2021/12/26 06:26:33;;;;;;;4.68;3.65;;;;;;;;;;5119023;27;20110;-52
2021/12/26 06:29:00;;;;;;;6.97;4.20;;;;;;;;;;5120234;27;20135;-55
2021/12/26 06:31:25;;;;;;;6.35;4.65;;;;;;;;;;5116298;27;20023;-54
2021/12/26 06:33:50;;;;;;;6.72;4.22;;;;;;;;;;5115220;27;20027;-54
2021/12/26 06:36:16;;;;;;;7.45;3.38;;;;;;;;;;5117630;27;20030;-52
2021/12/26 06:38:43;;;;;;;2.92;1.83;;;;;;;;;;5121776;27;20556;-55
2021/12/26 06:41:08;;;;;;;4.05;2.08;;;;;;;;;;5118313;27;20134;-53
2021/12/26 06:43:35;;;;;;;3.90;2.55;;;;;;;;;;5112025;27;20026;-53
2021/12/26 06:46:00;;;;;;;4.18;2.78;;;;;;;;;;5116492;27;20035;-55
2021/12/26 06:48:26;;;;;;;4.82;2.72;;;;;;;;;;5115270;27;20045;-55
2021/12/26 06:50:51;;;;;;;3.90;2.75;;;;;;;;;;5115624;27;20046;-55
2021/12/26 06:53:17;;;;;;;3.72;3.10;;;;;;;;;;5117931;27;20026;-55
2021/12/26 06:55:43;;;;;;;4.78;2.70;;;;;;;;;;5116604;27;20120;-55
2021/12/26 06:58:08;;;;;;;4.90;2.75;;;;;;;;;;5113504;27;20102;-55
2021/12/26 07:00:34;;;;;;;4.60;2.85;;;;;;;;;;5117368;27;20613;-55
2021/12/26 07:02:59;;;;;;;4.13;2.63;;;;;;;;;;5114213;27;20377;-53
2021/12/26 07:05:24;;;;;;;6.40;4.10;;;;;;;;;;5114172;27;20617;-55
2021/12/26 07:07:50;;;;;;;5.63;3.85;;;;;;;;;;5114238;27;20019;-56
2021/12/26 07:10:15;;;;;;;5.90;3.42;;;;;;;;;;5113151;27;20103;-55
2021/12/26 07:12:41;;;;;;;3.47;2.40;;;;;;;;;;5115059;27;20433;-55
2021/12/26 07:15:07;;;;;;;10.15;7.10;;;;;;;;;;5117847;27;20436;-53
2021/12/26 07:17:32;;;;;;;9.35;8.40;;;;;;;;;;5118322;27;20020;-51
2021/12/26 07:19:57;;;;;;;9.82;8.88;;;;;;;;;;5120389;27;20076;-53
2021/12/26 07:22:23;;;;;;;13.25;9.35;;;;;;;;;;5117550;27;20547;-52
2021/12/26 07:24:48;;;;;;;10.40;8.93;;;;;;;;;;5115112;27;20399;-54
2021/12/26 07:27:14;;;;;;;11.13;7.13;;;;;;;;;;5114215;27;20023;-56
2021/12/26 07:29:39;;;;;;;10.18;7.40;;;;;;;;;;5115104;27;20022;-55
2021/12/26 07:32:06;;;;;;;11.63;8.15;;;;;;;;;;5120339;27;20031;-56
2021/12/26 07:34:31;;;;;;;10.05;8.75;;;;;;;;;;5119034;27;20076;-55
2021/12/26 07:36:56;;;;;;;10.05;7.80;;;;;;;;;;5119026;27;20601;-54
2021/12/26 07:39:22;;;;;;;7.80;6.45;;;;;;;;;;5120815;27;20119;-54
2021/12/26 07:41:47;;;;;;;7.43;5.65;;;;;;;;;;5119004;27;20031;-54
2021/12/26 07:44:13;;;;;;;19.33;17.33;;;;;;;;;;5117901;27;20404;-55
2021/12/26 07:46:38;;;;;;;16.60;12.60;;;;;;;;;;5119362;27;20015;-55
2021/12/26 07:49:04;;;;;;;14.38;11.07;;;;;;;;;;5118840;28;20551;-55
2021/12/26 07:51:29;;;;;;;31.65;23.08;;;;;;;;;;5118943;28;20023;-55
2021/12/26 07:53:59;;;;;;;24.25;16.10;;;;;;;;;;5118420;28;20019;-55
2021/12/26 07:56:25;;;;;;;35.75;17.42;;;;;;;;;;5116321;28;20058;-54
2021/12/26 07:58:50;;;;;;;15.90;12.80;;;;;;;;;;5120245;28;20059;-53
2021/12/26 08:01:16;;;;;;;16.90;13.35;;;;;;;;;;5116942;28;20630;-54
2021/12/26 08:03:41;;;;;;;15.02;11.52;;;;;;;;;;5119944;28;20453;-55
2021/12/26 08:06:07;;;;;;;14.43;12.20;;;;;;;;;;5118122;28;20142;-55
2021/12/26 08:08:33;;;;;;;23.45;14.65;;;;;;;;;;5120470;28;20064;-55
2021/12/26 08:10:58;;;;;;;19.13;14.93;;;;;;;;;;5115380;28;20423;-54
2021/12/26 08:13:23;;;;;;;21.90;15.77;;;;;;;;;;5117201;28;20020;-53
2021/12/26 08:15:49;;;;;;;14.85;13.43;;;;;;;;;;5120892;28;20460;-55
2021/12/26 08:18:14;;;;;;;15.57;12.35;;;;;;;;;;5118738;28;20054;-53
2021/12/26 08:20:39;;;;;;;15.55;13.85;;;;;;;;;;5116933;27;20047;-55
2021/12/26 08:23:05;;;;;;;21.50;11.48;;;;;;;;;;5115222;28;20036;-55
2021/12/26 08:25:30;;;;;;;14.52;11.57;;;;;;;;;;5119872;27;20388;-51
2021/12/26 08:27:55;;;;;;;12.43;11.13;;;;;;;;;;5122754;27;20062;-55
2021/12/26 08:30:21;;;;;;;26.77;18.67;;;;;;;;;;5118837;27;20015;-52
2021/12/26 08:32:50;;;;;;;19.30;16.60;;;;;;;;;;5117704;27;20024;-54
2021/12/26 08:35:17;;;;;;;23.90;20.60;;;;;;;;;;5117478;27;20693;-55
2021/12/26 08:37:45;;;;;;;19.85;17.27;;;;;;;;;;5119930;27;20016;-55
2021/12/26 08:40:10;;;;;;;16.38;13.32;;;;;;;;;;5121367;27;20678;-55
2021/12/26 08:42:36;;;;;;;19.23;16.02;;;;;;;;;;5119821;27;20032;-53
2021/12/26 08:45:01;;;;;;;24.92;17.65;;;;;;;;;;5121400;27;20026;-51
2021/12/26 08:47:26;;;;;;;29.58;21.27;;;;;;;;;;5124197;27;20034;-55
2021/12/26 08:49:52;;;;;;;22.20;19.98;;;;;;;;;;5118125;27;20018;-56
2021/12/26 08:52:17;;;;;;;26.33;23.02;;;;;;;;;;5120969;27;20023;-52
2021/12/26 08:54:43;;;;;;;23.67;19.55;;;;;;;;;;5120349;27;20026;-53
2021/12/26 08:57:09;;;;;;;19.83;16.25;;;;;;;;;;5120444;27;20546;-55
2021/12/26 08:59:37;;;;;;;23.23;16.20;;;;;;;;;;5121736;27;20057;-54
2021/12/26 09:02:03;;;;;;;18.95;17.00;;;;;;;;;;5118180;27;20019;-54
2021/12/26 09:04:29;;;;;;;20.42;18.25;;;;;;;;;;5119695;27;20095;-55
2021/12/26 09:06:55;;;;;;;23.20;20.73;;;;;;;;;;5118167;27;20539;-56
2021/12/26 09:09:20;;;;;;;20.85;18.52;;;;;;;;;;5115712;27;20550;-54
2021/12/26 09:11:46;;;;;;;19.77;17.85;;;;;;;;;;5117965;27;20111;-53
2021/12/26 09:14:11;;;;;;;22.83;19.00;;;;;;;;;;5116116;27;20425;-55
2021/12/26 09:16:36;;;;;;;24.15;21.65;;;;;;;;;;5119468;27;20026;-38
2021/12/26 09:19:03;;;;;;;24.45;21.80;;;;;;;;;;5119599;27;20062;-48
2021/12/26 09:21:28;;;;;;;29.85;22.92;;;;;;;;;;5116625;27;20047;-46
2021/12/26 09:23:54;;;;;;;27.55;24.67;;;;;;;;;;5118707;27;20488;-47
2021/12/26 09:26:19;;;;;;;21.90;19.60;;;;;;;;;;5120283;27;20027;-41
2021/12/26 09:28:45;;;;;;;22.50;20.23;;;;;;;;;;5118900;27;20031;-49
2021/12/26 09:31:10;;;;;;;22.50;20.35;;;;;;;;;;5119248;27;20042;-45
2021/12/26 09:33:35;;;;;;;31.52;24.45;;;;;;;;;;5117341;27;20020;-44
2021/12/26 09:36:00;;;;;;;49.10;40.20;;;;;;;;;;5117315;27;20011;-49
2021/12/26 09:38:26;;;;;;;40.60;36.65;;;;;;;;;;5117485;27;20170;-48
2021/12/26 09:40:51;;;;;;;39.03;32.08;;;;;;;;;;5119618;27;20391;-47
2021/12/26 09:43:17;;;;;;;33.33;29.90;;;;;;;;;;5122523;27;20643;-49
2021/12/26 09:45:42;;;;;;;31.23;28.42;;;;;;;;;;5121644;27;20027;-48
2021/12/26 09:48:07;;;;;;;27.25;24.52;;;;;;;;;;5116451;27;20031;-49
2021/12/26 09:50:33;;;;;;;30.60;27.40;;;;;;;;;;5116724;27;20631;-45
2021/12/26 09:52:58;;;;;;;27.83;24.92;;;;;;;;;;5119416;27;20012;-47
2021/12/26 09:55:27;;;;;;;27.77;24.92;;;;;;;;;;5111816;27;20019;-45
2021/12/26 09:57:52;;;;;;;27.10;24.50;;;;;;;;;;5119325;27;20524;-46
2021/12/26 10:00:20;;;;;;;25.52;22.10;;;;;;;;;;5122174;27;20011;-48
2021/12/26 10:02:46;;;;;;;25.70;23.08;;;;;;;;;;5120855;27;20046;-48
2021/12/26 10:05:11;;;;;;;25.20;22.70;;;;;;;;;;5117407;27;20019;-45
2021/12/26 10:07:37;;;;;;;27.65;23.65;;;;;;;;;;5119139;27;20016;-45
2021/12/26 10:10:04;;;;;;;31.58;28.60;;;;;;;;;;5120913;27;20072;-44
2021/12/26 10:12:37;;;;;;;36.00;31.20;;;;;;;;;;5119042;27;20078;-45
2021/12/26 10:15:03;;;;;;;39.97;31.48;;;;;;;;;;5122261;27;20523;-42
2021/12/26 10:17:28;;;;;;;39.17;32.38;;;;;;;;;;5121461;27;20162;-44
2021/12/26 10:20:19;;;;;;;37.58;33.58;;;;;;;;;;5116825;27;20527;-50
2021/12/26 10:22:45;;;;;;;42.25;38.15;;;;;;;;;;5115642;27;20646;-46
2021/12/26 10:25:11;;;;;;;31.63;25.83;;;;;;;;;;5118401;27;20107;-44
2021/12/26 10:27:37;;;;;;;26.52;23.23;;;;;;;;;;5118432;27;20023;-44
2021/12/26 10:30:04;;;;;;;33.05;28.75;;;;;;;;;;5115799;27;20020;-47
2021/12/26 10:32:32;;;;;;;36.60;29.92;;;;;;;;;;5119012;27;20011;-48
2021/12/26 10:34:59;;;;;;;26.73;21.17;;;;;;;;;;5121241;27;20026;-48
2021/12/26 10:37:28;;;;;;;23.58;15.45;;;;;;;;;;5118866;27;20482;-48
2021/12/26 10:40:14;;;;;;;18.60;16.60;;;;;;;;;;5116821;27;20023;-49
2021/12/26 10:42:43;;;;;;;16.55;11.75;;;;;;;;;;5112740;27;20463;-46
2021/12/26 10:45:10;;;;;;;24.52;11.07;;;;;;;;;;5115812;27;20026;-47
2021/12/26 10:47:36;;;;;;;16.67;8.68;;;;;;;;;;5115968;27;20472;-50
2021/12/26 10:50:12;;;;;;;12.85;5.63;;;;;;;;;;5114070;27;20054;-47
2021/12/26 10:52:38;;;;;;;9.95;6.35;;;;;;;;;;5117594;27;20022;-46
2021/12/26 10:55:05;;;;;;;8.43;7.63;;;;;;;;;;5114418;27;20163;-50
2021/12/26 10:57:41;;;;;;;7.00;6.22;;;;;;;;;;5118800;27;20084;-42
2021/12/26 11:00:12;;;;;;;6.82;5.70;;;;;;;;;;5116850;27;20023;-50
2021/12/26 11:02:39;;;;;;;6.20;4.35;;;;;;;;;;5114528;27;20088;-50
2021/12/26 11:05:15;;;;;;;11.00;4.25;;;;;;;;;;5118847;27;20352;-48
2021/12/26 11:07:42;;;;;;;5.22;2.65;;;;;;;;;;5115145;27;20028;-46
2021/12/26 11:10:11;;;;;;;6.80;3.13;;;;;;;;;;5114362;27;20035;-43
2021/12/26 11:12:40;;;;;;;18.20;3.95;;;;;;;;;;5120459;27;20019;-45
2021/12/26 11:15:07;;;;;;;3.38;2.45;;;;;;;;;;5115053;27;20016;-44
2021/12/26 11:17:35;;;;;;;13.60;5.07;;;;;;;;;;5115175;27;20007;-41
2021/12/26 11:20:01;;;;;;;3.25;2.72;;;;;;;;;;5118403;27;20029;-45
2021/12/26 11:22:26;;;;;;;2.88;2.35;;;;;;;;;;5115991;27;20122;-44
2021/12/26 11:24:53;;;;;;;7.20;3.78;;;;;;;;;;5116541;27;20042;-44
2021/12/26 11:27:19;;;;;;;9.88;4.25;;;;;;;;;;5114270;27;20555;-45
2021/12/26 11:29:45;;;;;;;5.43;3.47;;;;;;;;;;5117063;27;20023;-44
2021/12/26 11:32:11;;;;;;;4.47;2.42;;;;;;;;;;5116003;27;20019;-40
2021/12/26 11:34:36;;;;;;;6.45;3.35;;;;;;;;;;5114859;27;20126;-44
2021/12/26 11:37:01;;;;;;;3.45;2.28;;;;;;;;;;5118155;27;20068;-43
2021/12/26 11:39:28;;;;;;;7.20;3.53;;;;;;;;;;5118572;27;20023;-43
2021/12/26 11:41:53;;;;;;;6.15;2.85;;;;;;;;;;5125538;27;20081;-40
2021/12/26 11:44:37;;;;;;;21.35;19.40;;;;;;;;;;5121881;27;20031;-44
2021/12/26 11:47:02;;;;;;;25.48;22.90;;;;;;;;;;5118249;27;20019;-42
2021/12/26 11:49:46;;;;;;;13.07;10.90;;;;;;;;;;5120468;27;20030;-43
2021/12/26 11:52:30;;;;;;;19.13;17.20;;;;;;;;;;5117412;28;20115;-42
2021/12/26 11:55:03;;;;;;;7.10;4.78;;;;;;;;;;5119634;28;20011;-43
2021/12/26 11:57:31;;;;;;;14.05;9.85;;;;;;;;;;5118501;28;20019;-42
2021/12/26 11:59:57;;;;;;;8.38;3.67;;;;;;;;;;5117043;28;20012;-46
2021/12/26 12:02:37;;;;;;;2.60;1.95;;;;;;;;;;5123832;27;20388;-40
2021/12/26 12:05:06;;;;;;;6.68;5.95;;;;;;;;;;5126183;27;20011;-41
2021/12/26 12:07:43;;;;;;;5.47;3.55;;;;;;;;;;5125394;27;20023;-41
2021/12/26 12:10:28;;;;;;;15.77;9.13;;;;;;;;;;5120878;27;20388;-45
2021/12/26 12:12:53;;;;;;;7.85;5.55;;;;;;;;;;5119113;27;20015;-40
2021/12/26 12:15:38;;;;;;;11.00;9.55;;;;;;;;;;5122200;27;20751;-43
2021/12/26 12:18:09;;;;;;;11.10;8.98;;;;;;;;;;5123886;27;20027;-40
2021/12/26 12:20:34;;;;;;;8.00;6.75;;;;;;;;;;5119133;27;20206;-42
2021/12/26 12:23:08;;;;;;;7.65;3.10;;;;;;;;;;5119397;27;20106;-42
2021/12/26 12:25:34;;;;;;;3.38;2.75;;;;;;;;;;5121661;27;20030;-40
2021/12/26 12:28:06;;;;;;;4.15;1.30;;;;;;;;;;5121716;27;20015;-43
2021/12/26 12:30:32;;;;;;;7.32;3.72;;;;;;;;;;5120170;27;20058;-40
2021/12/26 12:33:13;;;;;;;5.93;3.60;;;;;;;;;;5123709;27;20054;-42
2021/12/26 12:35:48;;;;;;;8.75;5.70;;;;;;;;;;5122932;27;20011;-41
2021/12/26 12:38:25;;;;;;;9.15;6.05;;;;;;;;;;5120253;27;20031;-45
2021/12/26 12:40:51;;;;;;;7.05;5.55;;;;;;;;;;5119890;27;20019;-42
2021/12/26 12:43:18;;;;;;;5.47;2.78;;;;;;;;;;5118408;27;20084;-45
2021/12/26 12:45:53;;;;;;;5.13;2.30;;;;;;;;;;5120225;27;20069;-50
2021/12/26 12:48:26;;;;;;;4.53;2.28;;;;;;;;;;5121572;27;20451;-48
2021/12/26 12:50:53;;;;;;;5.05;3.17;;;;;;;;;;5116547;27;20031;-47
2021/12/26 12:53:38;;;;;;;5.10;2.03;;;;;;;;;;5124560;27;20016;-46
2021/12/26 12:56:05;;;;;;;8.82;3.38;;;;;;;;;;5120482;27;20022;-46
2021/12/26 12:58:31;;;;;;;13.85;7.97;;;;;;;;;;5120752;27;20067;-44
2021/12/26 13:01:02;;;;;;;5.30;2.72;;;;;;;;;;5123567;27;20019;-44
2021/12/26 13:03:28;;;;;;;5.07;2.47;;;;;;;;;;5123369;27;20020;-43
2021/12/26 13:05:57;;;;;;;4.80;2.88;;;;;;;;;;5121164;27;20036;-44
2021/12/26 13:08:23;;;;;;;5.35;1.67;;;;;;;;;;5121722;27;20021;-41
2021/12/26 13:10:54;;;;;;;5.80;3.25;;;;;;;;;;5117870;27;20020;-45
2021/12/26 13:13:21;;;;;;;6.57;2.15;;;;;;;;;;5117737;27;20054;-45
2021/12/26 13:15:50;;;;;;;3.47;2.45;;;;;;;;;;5119481;27;20016;-42
2021/12/26 13:18:16;;;;;;;4.93;3.50;;;;;;;;;;5117737;27;20023;-49
2021/12/26 13:20:41;;;;;;;7.47;2.38;;;;;;;;;;5118337;27;20135;-47
2021/12/26 13:23:07;;;;;;;5.20;3.05;;;;;;;;;;5116891;27;20115;-44
2021/12/26 13:25:36;;;;;;;8.57;2.53;;;;;;;;;;5121558;27;20026;-47
2021/12/26 13:28:22;;;;;;;3.78;2.63;;;;;;;;;;5117651;27;20071;-45
2021/12/26 13:30:50;;;;;;;5.05;1.60;;;;;;;;;;5120574;27;20019;-44
2021/12/26 13:33:24;;;;;;;7.70;2.33;;;;;;;;;;5120684;27;20015;-44
2021/12/26 13:35:50;;;;;;;6.20;1.75;;;;;;;;;;5118926;27;20102;-45
2021/12/26 13:38:15;;;;;;;8.82;1.77;;;;;;;;;;5118186;27;20381;-43
2021/12/26 13:40:51;;;;;;;4.28;2.60;;;;;;;;;;5118404;27;20015;-45
2021/12/26 13:43:33;;;;;;;4.50;2.25;;;;;;;;;;5123852;27;20076;-40
2021/12/26 13:45:59;;;;;;;17.45;4.20;;;;;;;;;;5121753;27;20394;-39
2021/12/26 13:48:45;;;;;;;5.97;3.08;;;;;;;;;;5123019;27;20027;-46
2021/12/26 13:51:16;;;;;;;6.45;2.10;;;;;;;;;;5121289;27;20119;-44
2021/12/26 13:53:42;;;;;;;1.75;1.33;;;;;;;;;;5115274;27;20023;-45
2021/12/26 13:56:09;;;;;;;3.65;1.67;;;;;;;;;;5119070;27;20392;-41
2021/12/26 13:58:39;;;;;;;4.93;3.25;;;;;;;;;;5118061;27;20027;-41
2021/12/26 14:01:05;;;;;;;3.97;1.73;;;;;;;;;;5118000;27;20478;-42
2021/12/26 14:03:31;;;;;;;7.72;3.45;;;;;;;;;;5122845;27;20395;-40
2021/12/26 14:05:56;;;;;;;6.55;3.33;;;;;;;;;;5122866;27;20484;-47
2021/12/26 14:08:27;;;;;;;13.70;5.35;;;;;;;;;;5124907;27;20007;-42
2021/12/26 14:11:00;;;;;;;6.18;3.67;;;;;;;;;;5119962;27;20471;-46
2021/12/26 14:13:25;;;;;;;1.85;1.70;;;;;;;;;;5121163;27;20031;-43
2021/12/26 14:15:56;;;;;;;6.30;2.85;;;;;;;;;;5119357;27;20015;-43
2021/12/26 14:18:26;;;;;;;4.07;2.13;;;;;;;;;;5121737;27;20076;-42
2021/12/26 14:21:02;;;;;;;3.30;1.88;;;;;;;;;;5120289;27;20416;-42
2021/12/26 14:23:40;;;;;;;3.05;2.33;;;;;;;;;;5120225;27;20019;-45
2021/12/26 14:26:10;;;;;;;13.93;3.55;;;;;;;;;;5121055;27;20077;-44
2021/12/26 14:28:39;;;;;;;6.35;4.55;;;;;;;;;;5120563;27;20030;-43
2021/12/26 14:31:05;;;;;;;15.32;3.97;;;;;;;;;;5119131;27;20015;-44
2021/12/26 14:33:43;;;;;;;4.20;2.65;;;;;;;;;;5117054;27;20127;-42
2021/12/26 14:36:08;;;;;;;9.63;2.78;;;;;;;;;;5119994;27;20020;-44